Time;durP1;ratioP1;P1;durP2;ratioP2;P2;SDS_P1;SDS_P2;PMS_P1;PMS_P2;Temp;Humidity;BMP_temperature;BMP_pressure;BME280_temperature;BME280_humidity;BME280_pressure;Samples;Min_cycle;Max_cycle;Signal;HPM_P1;HPM_P2
2023/05/22 00:03:23;;;;;;;1999.90;999.90;;;18.60;99.90;;;;;;6780549;87;20231;-81
2023/05/22 00:13:23;;;;;;;1999.90;999.90;;;18.70;99.90;;;;;;6777621;88;20193;-81
2023/05/22 00:23:26;;;;;;;1999.90;999.90;;;18.40;99.90;;;;;;6776970;87;20694;-81
2023/05/22 00:33:27;;;;;;;1999.90;999.90;;;18.20;99.90;;;;;;6722936;88;20215;-82
2023/05/22 00:43:28;;;;;;;1999.90;999.90;;;18.10;99.90;;;;;;6726021;88;20181;-81
2023/05/22 00:53:29;;;;;;;1999.90;999.90;;;18.00;99.90;;;;;;6742985;88;20671;-81
2023/05/22 01:03:30;;;;;;;1999.90;999.90;;;17.80;99.90;;;;;;6782669;87;20168;-81
2023/05/22 01:13:40;;;;;;;1999.90;999.90;;;18.20;99.90;;;;;;6763881;88;20195;-82
2023/05/22 01:24:12;;;;;;;1999.90;999.90;;;17.90;99.90;;;;;;6762450;88;20178;-82
2023/05/22 01:34:14;;;;;;;1999.90;999.90;;;17.90;99.90;;;;;;6760814;88;20271;-81
2023/05/22 01:44:15;;;;;;;1999.90;999.90;;;17.80;99.90;;;;;;6761917;88;20185;-81
2023/05/22 01:54:23;;;;;;;1999.90;999.90;;;18.00;99.90;;;;;;6762307;88;20184;-81
2023/05/22 02:04:25;;;;;;;1999.90;999.90;;;17.70;99.90;;;;;;6760599;88;20268;-81
2023/05/22 02:14:28;;;;;;;1999.90;999.90;;;17.60;99.90;;;;;;6760371;88;20196;-81
2023/05/22 02:24:34;;;;;;;1999.90;999.90;;;17.60;99.90;;;;;;6761039;88;20200;-82
2023/05/22 02:34:36;;;;;;;1999.90;999.90;;;17.50;99.90;;;;;;6759579;88;20244;-81
2023/05/22 02:44:37;;;;;;;1999.90;999.90;;;17.40;99.90;;;;;;6759939;88;20204;-81
2023/05/22 02:54:37;;;;;;;1999.90;999.90;;;17.20;99.90;;;;;;6762651;88;20211;-82
2023/05/22 03:04:38;;;;;;;1999.90;999.90;;;17.10;99.90;;;;;;6767514;88;20168;-80
2023/05/22 03:14:38;;;;;;;1999.90;999.90;;;17.10;99.90;;;;;;6767078;88;20185;-82
2023/05/22 03:24:39;;;;;;;1999.90;999.90;;;17.00;99.90;;;;;;6761810;88;20226;-81
2023/05/22 03:34:40;;;;;;;1999.90;999.90;;;16.90;99.90;;;;;;6759741;88;20211;-81
2023/05/22 03:44:40;;;;;;;1999.90;999.90;;;16.80;99.90;;;;;;6759073;88;20185;-81
2023/05/22 03:54:41;;;;;;;1999.90;999.90;;;16.80;99.90;;;;;;6762989;88;20191;-81
2023/05/22 04:04:44;;;;;;;1999.90;999.90;;;16.90;99.90;;;;;;6760144;88;20209;-80
2023/05/22 04:14:45;;;;;;;1999.90;999.90;;;16.70;99.90;;;;;;6758520;88;20176;-81
2023/05/22 04:24:47;;;;;;;1999.90;999.90;;;16.60;99.90;;;;;;6759100;88;20259;-81
2023/05/22 04:34:51;;;;;;;1999.90;999.90;;;16.70;99.90;;;;;;6753617;88;20177;-80
2023/05/22 04:44:53;;;;;;;1999.90;999.90;;;16.60;99.90;;;;;;6757964;88;20223;-81
2023/05/22 04:54:54;;;;;;;1999.90;999.90;;;16.60;99.90;;;;;;6757106;88;21013;-81
2023/05/22 05:04:54;;;;;;;1999.90;999.90;;;16.70;99.90;;;;;;6763939;88;20195;-82
2023/05/22 05:14:55;;;;;;;1999.90;999.90;;;16.60;99.90;;;;;;6763763;88;20177;-80
2023/05/22 05:24:56;;;;;;;1999.90;999.90;;;16.70;99.90;;;;;;6762700;88;20599;-81
2023/05/22 05:34:57;;;;;;;1999.90;999.90;;;16.70;99.90;;;;;;6753809;88;20188;-80
2023/05/22 05:44:57;;;;;;;1999.90;999.90;;;16.90;99.90;;;;;;6755654;88;20889;-82
2023/05/22 05:54:59;;;;;;;1999.90;999.90;;;17.00;99.90;;;;;;6749538;88;20192;-84
2023/05/22 06:05:00;;;;;;;1999.90;999.90;;;17.40;99.90;;;;;;6745106;88;20782;-79
2023/05/22 06:15:02;;;;;;;1999.90;999.90;;;17.60;99.90;;;;;;6752508;88;20237;-79
2023/05/22 06:25:04;;;;;;;1999.90;999.90;;;18.20;99.90;;;;;;6771729;88;22769;-80
2023/05/22 06:35:05;;;;;;;1999.90;999.90;;;18.20;99.90;;;;;;6758708;88;20203;-81
2023/05/22 06:45:06;;;;;;;1999.90;999.90;;;18.30;99.90;;;;;;6746017;88;20289;-80
2023/05/22 06:55:07;;;;;;;1999.90;999.90;;;18.50;99.90;;;;;;6766658;88;20246;-81
2023/05/22 07:05:08;;;;;;;1999.90;999.90;;;18.60;99.90;;;;;;6776188;88;20164;-79
2023/05/22 07:15:11;;;;;;;1999.90;999.90;;;18.80;99.90;;;;;;6773295;87;20208;-80
2023/05/22 07:25:11;;;;;;;1999.90;999.90;;;19.10;99.90;;;;;;6744879;88;20247;-80
2023/05/22 07:35:11;;;;;;;1999.90;999.90;;;19.40;99.90;;;;;;6764800;87;20196;-80
2023/05/22 07:45:12;;;;;;;1999.90;999.90;;;19.60;99.90;;;;;;6766288;87;20202;-80
2023/05/22 07:55:13;;;;;;;1999.90;999.90;;;19.60;99.90;;;;;;6762846;88;20185;-80
2023/05/22 08:05:13;;;;;;;1999.90;999.90;;;19.80;99.90;;;;;;6764686;88;20214;-79
2023/05/22 08:15:14;;;;;;;1999.90;999.90;;;20.30;99.90;;;;;;6759097;88;20188;-80
2023/05/22 08:25:14;;;;;;;1999.90;999.90;;;21.00;99.90;;;;;;6757764;87;20197;-80
2023/05/22 08:35:15;;;;;;;1999.90;999.90;;;21.20;99.90;;;;;;6760336;88;20252;-79
2023/05/22 08:45:18;;;;;;;1999.90;999.90;;;21.70;99.90;;;;;;6759136;88;20173;-80
2023/05/22 08:55:19;;;;;;;1999.90;999.90;;;22.70;99.90;;;;;;6751484;88;20199;-79
2023/05/22 09:05:20;;;;;;;1999.90;999.90;;;23.50;99.90;;;;;;6757061;88;20213;-80
2023/05/22 09:15:21;;;;;;;1999.90;999.90;;;23.70;99.90;;;;;;6757706;88;20229;-79
2023/05/22 09:25:22;;;;;;;1999.90;999.90;;;24.20;99.90;;;;;;6755746;88;20184;-79
2023/05/22 09:35:26;;;;;;;1999.90;999.90;;;25.00;99.90;;;;;;6756003;88;20608;-79
2023/05/22 09:45:27;;;;;;;1999.90;999.90;;;25.30;99.90;;;;;;6752583;88;20185;-79
2023/05/22 09:55:28;;;;;;;1999.90;999.90;;;24.90;99.90;;;;;;6751274;88;20645;-79
2023/05/22 10:05:30;;;;;;;1999.90;999.90;;;25.10;99.90;;;;;;6753884;87;20238;-80
2023/05/22 10:15:31;;;;;;;1999.90;999.90;;;25.60;99.90;;;;;;6761344;88;20338;-80
2023/05/22 10:25:33;;;;;;;1999.90;999.90;;;25.80;99.90;;;;;;6760030;88;20214;-80
2023/05/22 10:35:54;;;;;;;1999.90;999.90;;;25.80;99.90;;;;;;6762486;87;20614;-79
2023/05/22 10:46:02;;;;;;;1999.90;999.90;;;25.60;99.90;;;;;;6758391;88;20627;-80
2023/05/22 10:56:11;;;;;;;1999.90;999.90;;;25.60;99.90;;;;;;6757646;88;20230;-80
2023/05/22 11:06:29;;;;;;;1999.90;999.90;;;25.20;99.90;;;;;;6760859;88;20205;-78
2023/05/22 11:16:32;;;;;;;1999.90;999.90;;;25.30;99.90;;;;;;6758985;88;20185;-78
2023/05/22 11:26:33;;;;;;;1999.90;999.90;;;25.70;99.90;;;;;;6764878;87;20183;-79
2023/05/22 11:36:34;;;;;;;1999.90;999.90;;;26.50;99.90;;;;;;6756967;88;20670;-79
2023/05/22 11:46:35;;;;;;;1999.90;999.90;;;26.00;99.90;;;;;;6757185;88;20326;-79
2023/05/22 11:56:35;;;;;;;1999.90;999.90;;;26.50;99.90;;;;;;6764345;88;20184;-79
2023/05/22 12:06:36;;;;;;;1999.90;999.90;;;27.20;99.90;;;;;;6758674;88;20261;-80
2023/05/22 12:16:36;;;;;;;1999.90;999.90;;;26.80;99.90;;;;;;6767834;87;20210;-79
2023/05/22 12:26:37;;;;;;;1999.90;999.90;;;27.30;99.90;;;;;;6763290;88;20723;-79
2023/05/22 12:46:42;;;;;;;1999.90;999.90;;;28.20;99.90;;;;;;6775495;87;20228;-82
2023/05/22 12:56:42;;;;;;;1999.90;999.90;;;27.50;99.90;;;;;;6762277;87;20188;-81
2023/05/22 13:06:43;;;;;;;1999.90;999.90;;;27.80;99.90;;;;;;6765240;88;20359;-81
2023/05/22 13:16:43;;;;;;;1999.90;999.90;;;27.40;99.90;;;;;;6765443;87;20305;-81
2023/05/22 13:26:44;;;;;;;1999.90;999.90;;;27.50;99.90;;;;;;6764851;88;20184;-81
2023/05/22 13:36:45;;;;;;;1999.90;999.90;;;27.60;99.90;;;;;;6766679;87;20187;-81
2023/05/22 13:46:46;;;;;;;1999.90;999.90;;;28.40;99.90;;;;;;6766720;88;20667;-82
2023/05/22 13:56:46;;;;;;;1999.90;999.90;;;29.20;99.90;;;;;;6765925;88;20201;-81
2023/05/22 14:06:47;;;;;;;1999.90;999.90;;;29.30;99.90;;;;;;6766311;87;20212;-82
2023/05/22 14:16:50;;;;;;;1999.90;999.90;;;28.90;99.90;;;;;;6763851;87;20196;-81
2023/05/22 14:26:56;;;;;;;1999.90;999.90;;;28.90;99.90;;;;;;6748157;88;20222;-82
2023/05/22 14:36:57;;;;;;;1999.90;999.90;;;28.60;99.90;;;;;;6746013;88;20710;-82
2023/05/22 14:46:58;;;;;;;1999.90;999.90;;;28.80;99.90;;;;;;6753149;88;20179;-81
2023/05/22 14:56:58;;;;;;;1999.90;999.90;;;28.40;99.90;;;;;;6691680;88;20219;-81
2023/05/22 15:07:00;;;;;;;1999.90;999.90;;;28.50;99.90;;;;;;6678980;89;20179;-80
2023/05/22 15:17:00;;;;;;;1999.90;999.90;;;28.10;99.90;;;;;;6677769;89;20230;-81
2023/05/22 15:27:01;;;;;;;1999.90;999.90;;;27.80;99.90;;;;;;6674988;88;20215;-80
2023/05/22 15:37:02;;;;;;;1999.90;999.90;;;27.40;99.90;;;;;;6682077;88;20182;-80
2023/05/22 15:47:02;;;;;;;1999.90;999.90;;;26.90;99.90;;;;;;6689624;88;20537;-80
2023/05/22 15:57:03;;;;;;;1999.90;999.90;;;26.80;99.90;;;;;;6686078;88;20254;-79
2023/05/22 16:07:03;;;;;;;1999.90;999.90;;;26.70;99.90;;;;;;6694558;87;20199;-81
2023/05/22 16:17:04;;;;;;;1999.90;999.90;;;26.30;99.90;;;;;;6692893;87;20196;-80
2023/05/22 16:27:05;;;;;;;1999.90;999.90;;;25.70;99.90;;;;;;6696707;88;20217;-81
2023/05/22 16:37:05;;;;;;;1999.90;999.90;;;25.40;99.90;;;;;;6761640;88;20313;-81
2023/05/22 16:47:06;;;;;;;1999.90;999.90;;;25.20;99.90;;;;;;6702673;87;20186;-80
2023/05/22 16:57:06;;;;;;;1999.90;999.90;;;24.60;99.90;;;;;;6703104;87;20187;-84
2023/05/22 17:07:07;;;;;;;1999.90;999.90;;;24.30;99.90;;;;;;6705889;87;20198;-81
2023/05/22 17:17:08;;;;;;;1999.90;999.90;;;23.90;99.90;;;;;;6694854;87;20222;-79
2023/05/22 17:27:09;;;;;;;1999.90;999.90;;;23.60;99.90;;;;;;6751072;88;20201;-79
2023/05/22 17:37:10;;;;;;;1999.90;999.90;;;23.40;99.90;;;;;;6733242;88;20617;-79
2023/05/22 17:47:12;;;;;;;1999.90;999.90;;;23.10;99.90;;;;;;6693328;88;20233;-80
2023/05/22 17:57:12;;;;;;;1999.90;999.90;;;22.70;99.90;;;;;;6693503;88;20191;-80
2023/05/22 18:07:14;;;;;;;1999.90;999.90;;;22.60;99.90;;;;;;6703568;87;20186;-79
2023/05/22 18:17:15;;;;;;;1999.90;999.90;;;22.40;99.90;;;;;;6692554;87;20236;-82
2023/05/22 18:27:15;;;;;;;1999.90;999.90;;;22.10;99.90;;;;;;6682602;89;20245;-82
2023/05/22 18:47:19;;;;;;;1999.90;999.90;;;21.80;99.90;;;;;;6772327;87;20325;-79
2023/05/22 18:57:20;;;;;;;1999.90;999.90;;;21.70;99.90;;;;;;6760260;87;20244;-79
2023/05/22 19:07:21;;;;;;;1999.90;999.90;;;21.60;99.90;;;;;;6756569;88;20185;-80
2023/05/22 19:17:21;;;;;;;1999.90;999.90;;;21.30;99.90;;;;;;6765650;87;20176;-80
2023/05/22 19:27:22;;;;;;;1999.90;999.90;;;21.00;99.90;;;;;;6754945;88;20521;-80
2023/05/22 19:37:23;;;;;;;1999.90;999.90;;;20.80;99.90;;;;;;6754471;88;20216;-80
2023/05/22 19:47:23;;;;;;;1999.90;999.90;;;20.70;99.90;;;;;;6753778;88;20951;-79
2023/05/22 19:57:25;;;;;;;1999.90;999.90;;;20.50;99.90;;;;;;6766402;88;20716;-80
2023/05/22 20:07:26;;;;;;;1999.90;999.90;;;20.40;99.90;;;;;;6761098;88;20181;-79
2023/05/22 20:17:27;;;;;;;1999.90;999.90;;;20.30;99.90;;;;;;6760195;88;20183;-83
2023/05/22 20:27:27;;;;;;;1999.90;999.90;;;20.20;99.90;;;;;;6771244;87;20267;-79
2023/05/22 20:37:28;;;;;;;1999.90;999.90;;;20.30;99.90;;;;;;6775516;87;20285;-82
2023/05/22 20:47:29;;;;;;;1999.90;999.90;;;20.30;99.90;;;;;;6772691;87;20204;-82
2023/05/22 21:08:31;;;;;;;1999.90;999.90;;;20.30;99.90;;;;;;6785679;87;20268;-80
2023/05/22 21:18:32;;;;;;;1999.90;999.90;;;20.20;99.90;;;;;;6783950;87;20186;-82
2023/05/22 21:28:32;;;;;;;1999.90;999.90;;;20.30;99.90;;;;;;6781470;87;20196;-81
2023/05/22 21:38:33;;;;;;;1999.90;999.90;;;20.00;99.90;;;;;;6780163;87;20206;-81
2023/05/22 21:48:33;;;;;;;1999.90;999.90;;;19.70;99.90;;;;;;6780384;87;20192;-81
2023/05/22 21:58:34;;;;;;;1999.90;999.90;;;19.50;99.90;;;;;;6780616;87;20195;-81
2023/05/22 22:08:35;;;;;;;1999.90;999.90;;;19.20;99.90;;;;;;6780586;87;20198;-81
2023/05/22 22:18:35;;;;;;;1999.90;999.90;;;19.00;99.90;;;;;;6780182;87;20248;-81
2023/05/22 22:28:36;;;;;;;1999.90;999.90;;;18.80;99.90;;;;;;6785046;87;20329;-81
2023/05/22 22:38:37;;;;;;;1999.90;999.90;;;18.50;99.90;;;;;;6790803;87;20230;-81
2023/05/22 22:48:40;;;;;;;1999.90;999.90;;;18.30;99.90;;;;;;6781985;87;20186;-81
2023/05/22 22:58:40;;;;;;;1999.90;999.90;;;18.10;99.90;;;;;;6765701;88;20210;-81
2023/05/22 23:08:41;;;;;;;1999.90;999.90;;;17.90;99.90;;;;;;6767581;88;20192;-81
2023/05/22 23:18:42;;;;;;;1999.90;999.90;;;17.70;99.90;;;;;;6767085;88;21029;-81
2023/05/22 23:28:42;;;;;;;1999.90;999.90;;;17.40;99.90;;;;;;6766752;88;20184;-80
2023/05/22 23:38:45;;;;;;;1999.90;999.90;;;17.40;99.90;;;;;;6767070;88;20188;-81
2023/05/22 23:48:46;;;;;;;1999.90;999.90;;;17.30;99.90;;;;;;6766688;88;20203;-81
2023/05/22 23:58:46;;;;;;;1999.90;999.90;;;17.20;99.90;;;;;;6767377;88;20684;-80
